createdAt,value
2022-08-03T00:01:27.565Z,79.06
2022-08-03T00:03:54.542Z,79.29
2022-08-03T00:06:21.170Z,78.96
2022-08-03T00:08:47.818Z,78.83
2022-08-03T00:11:14.430Z,79.49
2022-08-03T00:13:41.098Z,79.39
2022-08-03T00:16:07.837Z,79.42
2022-08-03T00:18:34.555Z,79.43
2022-08-03T00:21:01.180Z,79.17
2022-08-03T00:23:33.126Z,79.57
2022-08-03T00:26:14.474Z,79.76
2022-08-03T00:28:41.343Z,79.81
2022-08-03T00:31:08.227Z,80.02
2022-08-03T00:33:58.745Z,79.86
2022-08-03T00:36:28.152Z,79.83
2022-08-03T00:38:55.478Z,79.74
2022-08-03T00:41:22.299Z,79.76
2022-08-03T00:43:49.044Z,80.04
2022-08-03T00:46:21.052Z,79.89
2022-08-03T00:48:51.827Z,79.78
2022-08-03T00:51:34.899Z,79.88
2022-08-03T00:54:01.610Z,79.95
2022-08-03T00:56:28.341Z,80.09
2022-08-03T00:58:54.965Z,79.99
2022-08-03T01:01:21.717Z,80.30
2022-08-03T01:04:11.291Z,80.74
2022-08-03T01:06:46.315Z,80.48
2022-08-03T01:09:20.444Z,80.54
2022-08-03T01:12:00.701Z,80.30
2022-08-03T01:14:47.170Z,80.40
2022-08-03T01:17:23.579Z,80.30
2022-08-03T01:20:10.764Z,80.43
2022-08-03T01:22:40.696Z,80.18
2022-08-03T01:25:21.243Z,80.28
2022-08-03T01:27:56.903Z,80.19
2022-08-03T01:30:31.430Z,80.49
2022-08-03T01:33:06.772Z,80.39
2022-08-03T01:35:43.519Z,80.47
2022-08-03T01:38:22.828Z,80.71
2022-08-03T01:40:51.796Z,80.64
2022-08-03T01:44:27.547Z,80.82
2022-08-03T01:46:05.608Z,81.02
2022-08-03T01:48:32.213Z,80.90
2022-08-03T01:50:58.804Z,81.24
2022-08-03T01:53:25.400Z,81.74
2022-08-03T01:55:54.172Z,81.56
2022-08-03T01:58:20.898Z,81.24
2022-08-03T02:00:49.295Z,80.88
2022-08-03T02:03:16.063Z,81.28
2022-08-03T02:05:43.810Z,81.38
2022-08-03T02:08:11.234Z,81.26
2022-08-03T02:10:37.909Z,81.40
2022-08-03T02:13:06.247Z,81.68
2022-08-03T02:15:32.998Z,81.27
2022-08-03T02:18:00.339Z,80.83
2022-08-03T02:20:27.005Z,81.15
2022-08-03T02:22:53.713Z,81.05
2022-08-03T02:25:20.326Z,80.87
2022-08-03T02:27:51.820Z,81.03
2022-08-03T02:30:18.482Z,80.96
2022-08-03T02:32:48.931Z,81.00
2022-08-03T02:35:16.005Z,80.91
2022-08-03T02:37:49.612Z,80.80
2022-08-03T02:40:16.532Z,80.86
2022-08-03T02:42:43.155Z,81.35
2022-08-03T02:45:14.009Z,81.67
2022-08-03T02:47:53.534Z,81.57
2022-08-03T02:50:21.609Z,81.56
2022-08-03T02:52:48.860Z,81.19
2022-08-03T02:55:15.596Z,81.34
2022-08-03T02:57:42.234Z,81.69
2022-08-03T03:00:09.887Z,81.53
2022-08-03T03:02:36.640Z,81.38
2022-08-03T03:05:52.044Z,81.82
2022-08-03T03:07:51.693Z,81.51
2022-08-03T03:10:21.051Z,81.64
2022-08-03T03:12:48.161Z,81.64
2022-08-03T03:15:14.732Z,81.61
2022-08-03T03:17:41.425Z,81.33
2022-08-03T03:20:08.853Z,81.52
2022-08-03T03:22:35.522Z,81.45
2022-08-03T03:25:02.370Z,81.42
2022-08-03T03:27:29.357Z,81.43
2022-08-03T03:29:57.693Z,81.39
2022-08-03T03:32:24.353Z,81.76
2022-08-03T03:34:50.946Z,81.51
2022-08-03T03:37:17.770Z,81.37
2022-08-03T03:39:44.533Z,81.42
2022-08-03T03:42:11.138Z,81.20
2022-08-03T03:44:37.736Z,81.50
2022-08-03T03:47:04.573Z,81.54
2022-08-03T03:49:31.870Z,81.19
2022-08-03T03:51:58.531Z,80.93
2022-08-03T03:54:25.427Z,81.15
2022-08-03T03:56:55.596Z,80.81
2022-08-03T03:59:22.362Z,80.86
2022-08-03T04:01:49.015Z,81.31
2022-08-03T04:04:44.372Z,81.21
2022-08-03T04:07:29.659Z,80.95
2022-08-03T04:10:15.088Z,80.70
2022-08-03T04:12:50.108Z,80.75
2022-08-03T04:15:19.306Z,80.83
2022-08-03T04:17:45.987Z,81.05
2022-08-03T04:20:12.657Z,80.79
2022-08-03T04:22:39.786Z,80.35
2022-08-03T04:25:08.688Z,80.99
2022-08-03T04:27:37.227Z,80.67
2022-08-03T04:30:07.445Z,80.63
2022-08-03T04:32:34.191Z,80.50
2022-08-03T04:35:00.778Z,80.31
2022-08-03T04:37:30.228Z,80.72
2022-08-03T04:39:57.939Z,80.39
2022-08-03T04:42:24.581Z,80.41
2022-08-03T04:44:51.219Z,80.39
2022-08-03T04:47:17.979Z,80.32
2022-08-03T04:49:44.593Z,79.69
2022-08-03T04:52:11.252Z,80.01
2022-08-03T04:54:42.772Z,79.78
2022-08-03T04:57:22.239Z,79.91
2022-08-03T04:59:59.598Z,79.69
2022-08-03T05:02:28.698Z,79.58
2022-08-03T05:04:55.335Z,79.21
2022-08-03T05:07:25.030Z,78.62
2022-08-03T05:09:57.663Z,76.48
2022-08-03T05:12:32.693Z,70.87
2022-08-03T05:14:59.948Z,67.04
2022-08-03T05:17:26.721Z,62.22
2022-08-03T05:19:53.642Z,58.20
2022-08-03T05:22:33.627Z,55.01
2022-08-03T05:25:01.444Z,49.84
2022-08-03T05:27:28.054Z,45.41
2022-08-03T05:29:54.692Z,42.06
2022-08-03T05:32:21.551Z,39.94
2022-08-03T05:34:48.273Z,35.85
2022-08-03T05:37:14.899Z,34.49
2022-08-03T05:39:41.738Z,33.66
2022-08-03T05:42:08.441Z,33.69
2022-08-03T05:44:38.649Z,32.49
2022-08-03T05:47:06.085Z,32.11
2022-08-03T05:49:32.904Z,31.42
2022-08-03T05:52:00.063Z,30.11
2022-08-03T05:54:56.407Z,30.11
2022-08-03T05:57:24.249Z,28.52
2022-08-03T05:59:54.658Z,27.30
2022-08-03T06:02:24.903Z,27.91
2022-08-03T06:04:51.537Z,27.50
2022-08-03T06:07:18.648Z,26.21
2022-08-03T06:10:34.867Z,26.15
2022-08-03T06:12:32.311Z,26.36
2022-08-03T06:14:58.967Z,25.21
2022-08-03T06:17:25.583Z,24.56
2022-08-03T06:19:53.925Z,24.35
2022-08-03T06:22:20.634Z,23.47
2022-08-03T06:24:54.713Z,24.28
2022-08-03T06:27:36.813Z,24.27
2022-08-03T06:30:08.036Z,23.63
2022-08-03T06:32:37.129Z,23.60
2022-08-03T06:35:09.133Z,23.87
2022-08-03T06:37:46.013Z,23.01
2022-08-03T06:40:24.255Z,22.67
2022-08-03T06:42:51.479Z,21.87
2022-08-03T06:45:19.200Z,22.72
2022-08-03T06:47:50.683Z,23.58
2022-08-03T06:50:20.666Z,23.27
2022-08-03T06:52:49.659Z,23.69
2022-08-03T06:55:16.562Z,23.73
2022-08-03T06:57:43.642Z,22.76
2022-08-03T07:00:12.694Z,22.77
2022-08-03T07:02:40.558Z,22.80
2022-08-03T07:05:09.704Z,23.71
2022-08-03T07:07:41.390Z,24.97
2022-08-03T07:10:09.569Z,24.76
2022-08-03T07:12:38.610Z,25.20
2022-08-03T07:15:55.768Z,24.95
2022-08-03T07:18:13.220Z,25.68
2022-08-03T07:20:41.388Z,24.79
2022-08-03T07:23:10.380Z,25.55
2022-08-03T07:25:46.004Z,26.29
2022-08-03T07:28:12.695Z,27.90
2022-08-03T07:30:39.395Z,28.51
2022-08-03T07:33:06.122Z,29.13
2022-08-03T07:35:32.747Z,30.04
2022-08-03T07:37:59.668Z,31.48
2022-08-03T07:40:30.628Z,32.80
2022-08-03T07:42:58.951Z,32.94
2022-08-03T07:45:26.766Z,32.94
2022-08-03T07:47:54.250Z,34.05
2022-08-03T07:50:21.552Z,33.14
2022-08-03T07:52:48.522Z,34.16
2022-08-03T07:55:16.039Z,34.62
2022-08-03T07:57:42.725Z,35.04
2022-08-03T08:00:17.372Z,34.41
2022-08-03T08:02:44.326Z,35.31
2022-08-03T08:05:11.158Z,36.37
2022-08-03T08:07:38.712Z,35.67
2022-08-03T08:10:10.110Z,33.57
2022-08-03T08:12:37.833Z,32.36
2022-08-03T08:15:09.034Z,31.79
2022-08-03T08:17:49.925Z,35.19
2022-08-03T08:20:23.809Z,33.76
2022-08-03T08:23:01.072Z,35.60
2022-08-03T08:25:29.588Z,35.34
2022-08-03T08:28:29.234Z,37.44
2022-08-03T08:30:43.475Z,37.61
2022-08-03T08:33:22.187Z,37.23
2022-08-03T08:35:50.436Z,37.47
2022-08-03T08:38:17.194Z,37.99
2022-08-03T08:40:43.919Z,36.64
2022-08-03T08:43:10.740Z,37.73
2022-08-03T08:45:37.564Z,36.85
2022-08-03T08:48:08.104Z,34.75
2022-08-03T08:50:35.359Z,36.20
2022-08-03T08:53:03.303Z,35.23
2022-08-03T08:55:56.568Z,35.60
2022-08-03T08:58:20.982Z,35.05
2022-08-03T09:00:48.607Z,36.21
2022-08-03T10:23:21.095Z,36.01
2022-08-03T10:25:51.330Z,35.56
2022-08-03T10:28:18.898Z,35.84
2022-08-03T10:30:49.429Z,35.87
2022-08-03T10:33:50.354Z,35.27
2022-08-03T10:36:07.825Z,34.79
2022-08-03T10:38:52.775Z,33.69
2022-08-03T10:41:25.687Z,34.87
2022-08-03T10:43:58.679Z,35.13
2022-08-03T10:46:25.522Z,34.78
2022-08-03T10:48:53.337Z,33.93
2022-08-03T10:51:20.874Z,34.96
2022-08-03T10:53:54.658Z,34.81
2022-08-03T10:56:54.473Z,33.91
2022-08-03T10:59:46.837Z,34.01
2022-08-03T11:02:15.844Z,32.71
2022-08-03T11:04:42.973Z,34.76
2022-08-03T11:07:16.239Z,35.46
2022-08-03T11:09:50.210Z,36.09
2022-08-03T11:12:28.449Z,34.93
2022-08-03T11:15:03.698Z,35.04
2022-08-03T11:17:30.389Z,35.65
2022-08-03T11:19:58.488Z,36.23
2022-08-03T11:22:25.648Z,39.44
2022-08-03T11:24:54.418Z,38.73
2022-08-03T11:27:24.843Z,37.50
2022-08-03T11:29:55.581Z,37.31
2022-08-03T11:32:37.341Z,38.88
2022-08-03T11:35:18.676Z,36.10
2022-08-03T11:38:03.015Z,35.24
2022-08-03T11:40:48.268Z,32.98
2022-08-03T11:43:26.741Z,32.73
2022-08-03T11:46:08.338Z,33.00
2022-08-03T11:48:45.469Z,34.10
2022-08-03T11:51:28.811Z,33.61
2022-08-03T11:53:55.642Z,34.88
2022-08-03T11:56:22.390Z,33.13
2022-08-03T11:59:01.901Z,34.40
2022-08-03T12:01:37.630Z,31.10
2022-08-03T12:04:04.949Z,31.61
2022-08-03T12:06:31.657Z,32.68
2022-08-03T12:08:58.344Z,32.39
2022-08-03T12:11:25.067Z,31.42
2022-08-03T12:14:44.169Z,31.49
2022-08-03T12:16:38.374Z,30.50
2022-08-03T12:19:06.624Z,29.99
2022-08-03T12:21:33.529Z,29.44
2022-08-03T12:24:03.130Z,30.14
2022-08-03T12:26:30.439Z,33.16
2022-08-03T12:28:57.591Z,33.53
2022-08-03T12:31:25.042Z,30.60
2022-08-03T12:34:07.560Z,30.85
2022-08-03T12:36:35.392Z,30.91
2022-08-03T12:39:04.601Z,29.85
2022-08-03T12:41:34.157Z,30.46
2022-08-03T12:44:07.137Z,30.01
2022-08-03T12:46:36.504Z,30.59
2022-08-03T12:49:18.907Z,30.18
2022-08-03T12:51:47.243Z,28.77
2022-08-03T12:54:17.677Z,30.98
2022-08-03T12:57:11.163Z,30.37
2022-08-03T12:59:52.672Z,30.14
2022-08-03T13:02:20.999Z,29.88
2022-08-03T13:04:50.884Z,29.66
2022-08-03T13:07:18.273Z,32.25
2022-08-03T13:09:49.748Z,31.69
2022-08-03T13:12:17.949Z,31.63
2022-08-03T13:14:45.942Z,32.96
2022-08-03T13:17:13.040Z,30.31
2022-08-03T13:19:39.887Z,29.60
2022-08-03T13:22:14.008Z,30.93
2022-08-03T13:24:40.994Z,28.76
2022-08-03T13:28:01.558Z,30.21
2022-08-03T13:29:54.845Z,29.43
2022-08-03T13:32:21.615Z,30.23
2022-08-03T13:34:48.654Z,29.67
2022-08-03T13:37:15.458Z,29.41
2022-08-03T13:39:57.630Z,27.84
2022-08-03T13:42:25.704Z,28.74
2022-08-03T13:44:52.475Z,29.65
2022-08-03T13:47:19.988Z,28.31
2022-08-03T13:50:00.541Z,32.44
2022-08-03T13:52:35.676Z,29.84
2022-08-03T13:55:03.999Z,28.77
2022-08-03T13:58:02.244Z,29.39
2022-08-03T14:00:27.134Z,30.18
2022-08-03T14:03:02.815Z,29.39
2022-08-03T14:05:32.511Z,29.82
2022-08-03T14:08:04.927Z,29.44
2022-08-03T14:10:35.845Z,28.92
2022-08-03T14:13:02.800Z,29.00
2022-08-03T14:15:29.637Z,29.30
2022-08-03T14:17:58.599Z,32.06
2022-08-03T14:20:37.734Z,31.38
2022-08-03T14:23:12.989Z,30.39
2022-08-03T14:25:50.703Z,29.26
2022-08-03T14:28:21.778Z,28.71
2022-08-03T14:30:48.726Z,29.65
2022-08-03T14:33:15.663Z,29.18
2022-08-03T14:35:42.572Z,30.42
2022-08-03T14:38:09.208Z,29.50
2022-08-03T14:40:35.860Z,29.54
2022-08-03T14:43:02.741Z,29.82
2022-08-03T14:45:30.775Z,29.93
2022-08-03T14:50:32.160Z,32.13
2022-08-03T14:50:51.069Z,29.87
2022-08-03T14:53:18.977Z,30.25
2022-08-03T14:55:49.318Z,29.67
2022-08-03T14:58:19.976Z,29.89
2022-08-03T15:00:48.483Z,29.43
2022-08-03T15:03:15.807Z,28.62
2022-08-03T15:05:43.886Z,28.71
2022-08-03T15:08:10.536Z,29.67
2022-08-03T15:10:40.342Z,30.15
2022-08-03T15:13:11.637Z,29.64
2022-08-03T15:15:38.263Z,29.73
2022-08-03T15:18:05.090Z,30.42
2022-08-03T15:20:43.325Z,32.29
2022-08-03T15:23:10.843Z,29.96
2022-08-03T15:26:28.679Z,29.78
2022-08-03T15:28:24.240Z,31.25
2022-08-03T15:30:54.023Z,30.15
2022-08-03T15:33:20.726Z,30.21
2022-08-03T15:35:47.864Z,31.53
2022-08-03T15:38:14.671Z,32.02
2022-08-03T15:40:41.483Z,30.73
2022-08-03T15:43:08.172Z,30.02
2022-08-03T15:45:35.486Z,30.64
2022-08-03T15:48:03.178Z,32.93
2022-08-03T15:50:29.806Z,31.19
2022-08-03T15:52:56.839Z,30.54
2022-08-03T15:55:23.576Z,31.13
2022-08-03T15:59:07.626Z,31.03
2022-08-03T16:00:37.013Z,29.88
2022-08-03T16:03:03.708Z,30.98
2022-08-03T16:05:30.370Z,29.78
2022-08-03T16:08:02.841Z,29.86
2022-08-03T16:10:30.868Z,30.80
2022-08-03T16:12:58.993Z,31.17
2022-08-03T16:15:25.695Z,30.64
2022-08-03T16:17:52.419Z,30.90
2022-08-03T16:20:31.324Z,33.11
2022-08-03T16:23:10.643Z,32.39
2022-08-03T16:25:42.079Z,33.01
2022-08-03T16:28:13.854Z,33.47
2022-08-03T16:30:42.507Z,33.49
2022-08-03T16:33:09.268Z,32.13
2022-08-03T16:35:35.963Z,31.25
2022-08-03T16:38:07.809Z,31.71
2022-08-03T16:40:36.434Z,31.78
2022-08-03T16:43:18.456Z,32.21
2022-08-03T16:45:46.622Z,33.96
2022-08-03T16:48:13.514Z,35.07
2022-08-03T16:50:40.176Z,35.44
2022-08-03T16:53:09.281Z,33.97
2022-08-03T16:55:43.480Z,34.61
2022-08-03T16:58:34.348Z,35.67
2022-08-03T17:01:21.066Z,34.63
2022-08-03T17:04:02.117Z,34.13
2022-08-03T17:06:34.971Z,34.68
2022-08-03T17:09:12.462Z,35.94
2022-08-03T17:11:47.185Z,35.31
2022-08-03T17:14:15.414Z,35.82
2022-08-03T17:17:47.525Z,35.82
2022-08-03T17:20:19.505Z,36.13
2022-08-03T17:22:50.096Z,36.73
2022-08-03T17:25:22.153Z,36.63
2022-08-03T17:28:48.124Z,35.51
2022-08-03T17:31:22.873Z,35.67
2022-08-03T17:33:57.141Z,36.94
2022-08-03T17:36:41.928Z,37.78
2022-08-03T17:39:16.979Z,37.88
2022-08-03T17:41:50.139Z,39.12
2022-08-03T17:44:31.965Z,40.01
2022-08-03T17:47:05.049Z,40.66
2022-08-03T17:49:40.115Z,40.51
2022-08-03T17:52:27.494Z,41.59
2022-08-03T17:55:54.861Z,41.82
2022-08-03T17:58:03.006Z,42.26
2022-08-03T18:00:51.753Z,43.04
2022-08-03T18:03:57.940Z,43.14
2022-08-03T18:06:28.689Z,42.52
2022-08-03T18:08:56.518Z,42.68
2022-08-03T18:11:24.216Z,42.89
2022-08-03T18:14:15.965Z,43.99
2022-08-03T18:16:52.677Z,48.09
2022-08-03T18:19:19.840Z,48.75
2022-08-03T18:22:06.530Z,48.43
2022-08-03T18:24:33.350Z,48.14
2022-08-03T18:27:02.326Z,48.35
2022-08-03T18:29:29.936Z,48.83
2022-08-03T18:32:01.461Z,49.07
2022-08-03T18:34:33.177Z,49.30
2022-08-03T18:37:08.027Z,49.58
2022-08-03T18:39:49.380Z,50.43
2022-08-03T18:42:19.152Z,51.17
2022-08-03T18:44:52.974Z,51.51
2022-08-03T18:50:36.722Z,51.98
2022-08-03T18:56:53.629Z,51.64
2022-08-03T18:59:39.826Z,52.06
2022-08-03T19:02:09.187Z,52.85
2022-08-03T19:04:41.177Z,53.15
2022-08-03T19:07:08.863Z,53.25
2022-08-03T19:09:49.535Z,53.42
2022-08-03T19:12:44.626Z,53.61
2022-08-03T19:18:52.194Z,54.78
2022-08-03T19:21:18.904Z,54.58
2022-08-03T19:23:46.190Z,55.09
2022-08-03T19:26:26.673Z,55.16
2022-08-03T19:28:56.867Z,55.45
2022-08-03T19:31:25.102Z,55.93
2022-08-03T19:37:40.258Z,57.34
2022-08-03T19:40:10.978Z,57.18
2022-08-03T19:42:41.195Z,57.32
2022-08-03T19:45:11.243Z,57.59
2022-08-03T19:47:52.437Z,57.71
2022-08-03T19:50:20.269Z,58.37
2022-08-03T19:52:47.889Z,58.14
2022-08-03T19:55:16.062Z,58.23
2022-08-03T19:57:45.624Z,58.55
2022-08-03T20:00:14.006Z,58.60
2022-08-03T20:02:41.430Z,58.67
2022-08-03T20:05:15.545Z,58.85
2022-08-03T20:07:42.688Z,59.45
2022-08-03T20:10:15.691Z,59.93
2022-08-03T20:12:43.476Z,60.24
2022-08-03T20:15:10.837Z,60.36
2022-08-03T20:17:56.087Z,61.01
2022-08-03T20:20:34.999Z,60.88
2022-08-03T20:23:13.942Z,61.19
2022-08-03T20:25:48.700Z,60.92
2022-08-03T20:28:31.623Z,60.83
2022-08-03T20:30:59.940Z,60.61
2022-08-03T20:33:27.636Z,60.69
2022-08-03T20:36:03.299Z,61.22
2022-08-03T20:38:30.575Z,61.77
2022-08-03T20:40:59.137Z,63.07
2022-08-03T20:43:26.310Z,62.97
2022-08-03T20:45:59.685Z,63.52
2022-08-03T20:48:40.783Z,63.21
2022-08-03T20:51:19.637Z,62.75
2022-08-03T20:54:00.533Z,63.21
2022-08-03T20:56:31.209Z,62.80
2022-08-03T20:59:05.475Z,62.99
2022-08-03T21:01:36.156Z,63.42
2022-08-03T21:04:09.248Z,63.39
2022-08-03T21:06:40.381Z,63.92
2022-08-03T21:09:07.083Z,63.71
2022-08-03T21:11:41.748Z,63.50
2022-08-03T21:13:08.589Z,51.53
2022-08-03T21:14:52.533Z,63.55
2022-08-03T21:17:39.231Z,63.82
2022-08-03T21:20:07.404Z,64.15
2022-08-03T21:22:34.173Z,65.56
2022-08-03T21:25:04.025Z,66.24
2022-08-03T21:27:31.509Z,66.33
2022-08-03T21:30:03.001Z,65.84
2022-08-03T21:32:33.095Z,65.79
2022-08-03T21:35:00.389Z,66.18
2022-08-03T21:37:30.071Z,65.96
2022-08-03T21:39:56.910Z,65.87
2022-08-03T21:42:25.030Z,65.84
2022-08-03T21:44:52.363Z,65.85
2022-08-03T21:47:20.093Z,65.63
2022-08-03T21:50:06.265Z,65.38
2022-08-03T21:52:46.654Z,66.00
2022-08-03T21:55:18.350Z,66.28
2022-08-03T21:57:51.380Z,66.32
2022-08-03T22:00:19.203Z,66.03
2022-08-03T22:02:53.020Z,66.19
2022-08-03T22:05:42.869Z,66.59
2022-08-03T22:08:08.991Z,66.55
2022-08-03T22:10:35.877Z,66.28
2022-08-03T22:13:02.564Z,66.28
2022-08-03T22:15:29.243Z,66.29
2022-08-03T22:17:57.195Z,66.02
2022-08-03T22:20:24.191Z,66.32
2022-08-03T22:22:55.695Z,65.85
2022-08-03T22:25:25.070Z,66.68
2022-08-03T22:27:51.720Z,66.83
2022-08-03T22:30:19.120Z,66.58
2022-08-03T22:32:46.513Z,66.43
2022-08-03T22:35:13.886Z,66.69
2022-08-03T22:37:41.199Z,66.78
2022-08-03T22:40:13.194Z,66.51
2022-08-03T22:42:40.463Z,66.86
2022-08-03T22:45:07.639Z,66.50
2022-08-03T22:47:39.767Z,66.66
2022-08-03T22:50:31.608Z,66.89
2022-08-03T22:52:57.941Z,66.60
2022-08-03T22:55:25.286Z,66.69
2022-08-03T22:57:56.218Z,66.75
2022-08-03T23:00:23.320Z,66.71
2022-08-03T23:02:50.149Z,66.75
2022-08-03T23:06:02.272Z,66.75
2022-08-03T23:08:16.896Z,66.97
2022-08-03T23:10:47.090Z,67.54
2022-08-03T23:13:16.395Z,67.82
2022-08-03T23:15:43.105Z,67.88
2022-08-03T23:18:09.862Z,68.50
2022-08-03T23:20:37.848Z,68.48
2022-08-03T23:23:05.141Z,68.32
2022-08-03T23:25:31.936Z,68.61
2022-08-03T23:28:05.017Z,68.85
2022-08-03T23:30:34.856Z,68.46
2022-08-03T23:33:01.534Z,69.34
2022-08-03T23:36:28.182Z,69.30
2022-08-03T23:38:36.689Z,69.15
2022-08-03T23:41:04.181Z,69.40
2022-08-03T23:43:50.909Z,69.37
2022-08-03T23:46:19.867Z,69.17
2022-08-03T23:48:46.567Z,69.22
2022-08-03T23:51:42.302Z,69.23
2022-08-03T23:54:37.859Z,69.43
2022-08-03T23:57:17.899Z,69.43
